createdAt,value
2023-01-28T00:01:18.648Z,101955.94
2023-01-28T00:03:45.231Z,101953.50
2023-01-28T00:06:13.639Z,101951.97
2023-01-28T00:08:42.316Z,101940.03
2023-01-28T00:11:11.768Z,101960.59
2023-01-28T00:13:39.018Z,101915.28
2023-01-28T00:16:08.406Z,101957.09
2023-01-28T00:18:35.292Z,101940.59
2023-01-28T00:21:03.820Z,101945.69
2023-01-28T00:23:32.989Z,101942.34
2023-01-28T00:26:02.515Z,101949.25
2023-01-28T00:28:29.443Z,101941.56
2023-01-28T00:30:56.753Z,101942.44
2023-01-28T00:33:23.730Z,101942.34
2023-01-28T00:35:57.913Z,101944.69
2023-01-28T00:38:24.561Z,101890.34
2023-01-28T00:40:51.209Z,101898.03
2023-01-28T00:43:19.587Z,101942.34
2023-01-28T00:45:48.490Z,101945.50
2023-01-28T00:48:16.522Z,101920.28
2023-01-28T00:50:44.505Z,101941.44
2023-01-28T00:53:11.117Z,101944.94
2023-01-28T00:55:37.622Z,101923.50
2023-01-28T00:58:04.217Z,101949.09
2023-01-28T01:00:32.104Z,101927.69
2023-01-28T01:02:59.711Z,101948.34
2023-01-28T01:05:26.342Z,101947.34
2023-01-28T01:07:52.981Z,101906.50
2023-01-28T01:10:20.087Z,101934.34
2023-01-28T01:12:46.894Z,101942.97
2023-01-28T01:15:14.964Z,101920.72
2023-01-28T01:17:44.769Z,101935.94
2023-01-28T01:20:14.299Z,101939.59
2023-01-28T01:22:41.046Z,101907.97
2023-01-28T01:25:08.646Z,101943.97
2023-01-28T01:27:35.541Z,101944.06
2023-01-28T01:30:02.321Z,101882.59
2023-01-28T01:32:30.570Z,101924.50
2023-01-28T01:34:58.568Z,101949.34
2023-01-28T01:37:25.791Z,101941.66
2023-01-28T01:39:52.387Z,101894.13
2023-01-28T01:42:19.361Z,101948.50
2023-01-28T01:45:01.221Z,101911.13
2023-01-28T01:47:36.611Z,101945.38
2023-01-28T01:50:11.914Z,101909.69
2023-01-28T01:52:40.479Z,101938.69
2023-01-28T01:55:12.771Z,101939.53
2023-01-28T01:57:40.525Z,101903.75
2023-01-28T02:00:09.605Z,101944.97
2023-01-28T02:02:47.196Z,101934.00
2023-01-28T02:05:19.684Z,101944.44
2023-01-28T02:07:48.365Z,101947.88
2023-01-28T02:10:18.294Z,101960.97
2023-01-28T02:12:50.237Z,101942.06
2023-01-28T02:15:18.858Z,101961.28
2023-01-28T02:17:46.482Z,101967.47
2023-01-28T02:20:21.700Z,101947.91
2023-01-28T02:23:26.942Z,101972.88
2023-01-28T02:26:31.054Z,101975.53
2023-01-28T02:29:10.516Z,101934.56
2023-01-28T02:31:42.379Z,101951.59
2023-01-28T02:34:17.266Z,101961.84
2023-01-28T02:36:51.256Z,101961.88
2023-01-28T02:39:23.175Z,101973.31
2023-01-28T02:41:53.994Z,101964.00
2023-01-28T02:44:22.559Z,101921.28
2023-01-28T02:46:52.105Z,101966.72
2023-01-28T02:49:23.217Z,101962.56
2023-01-28T02:51:57.209Z,101968.09
2023-01-28T02:54:35.762Z,101966.56
2023-01-28T02:57:12.874Z,101925.72
2023-01-28T02:59:45.668Z,101972.19
2023-01-28T03:02:20.192Z,101970.75
2023-01-28T03:04:52.313Z,101977.81
2023-01-28T03:07:20.187Z,101980.88
2023-01-28T03:09:49.612Z,101979.31
2023-01-28T03:12:21.728Z,101960.91
2023-01-28T03:14:53.550Z,101944.09
2023-01-28T03:17:26.764Z,101986.31
2023-01-28T03:19:54.511Z,102000.28
2023-01-28T03:22:22.287Z,102002.09
2023-01-28T03:24:52.779Z,102003.88
2023-01-28T03:27:29.370Z,101984.09
2023-01-28T03:30:09.144Z,101999.56
2023-01-28T03:32:38.019Z,102005.88
2023-01-28T03:35:08.541Z,102007.66
2023-01-28T03:37:35.623Z,102012.88
2023-01-28T03:40:12.311Z,102021.69
2023-01-28T03:42:38.971Z,102017.47
2023-01-28T03:45:14.123Z,101986.16
2023-01-28T03:47:41.035Z,101987.94
2023-01-28T03:50:10.769Z,102018.69
2023-01-28T03:52:50.313Z,102023.16
2023-01-28T03:55:29.718Z,102002.78
2023-01-28T03:57:56.366Z,101999.44
2023-01-28T04:00:24.872Z,102034.66
2023-01-28T04:02:51.801Z,102023.59
2023-01-28T04:05:20.339Z,102033.94
2023-01-28T04:07:48.692Z,102038.41
2023-01-28T04:10:20.604Z,101976.00
2023-01-28T04:12:54.899Z,102028.22
2023-01-28T04:15:24.925Z,102030.97
2023-01-28T04:17:51.458Z,102024.09
2023-01-28T04:20:29.626Z,102026.00
2023-01-28T04:22:59.132Z,102033.88
2023-01-28T04:25:25.793Z,102030.63
2023-01-28T04:27:52.710Z,102031.53
2023-01-28T04:30:26.697Z,102030.06
2023-01-28T04:33:23.327Z,102042.16
2023-01-28T04:36:22.436Z,102047.38
2023-01-28T04:39:05.308Z,102042.16
2023-01-28T04:41:46.008Z,102043.25
2023-01-28T04:44:21.689Z,102046.84
2023-01-28T04:47:03.485Z,102052.16
2023-01-28T04:49:54.960Z,102010.28
2023-01-28T04:52:44.655Z,102055.69
2023-01-28T04:55:18.880Z,102052.38
2023-01-28T04:57:46.846Z,102054.25
2023-01-28T05:00:14.076Z,102052.56
2023-01-28T05:02:42.038Z,102056.91
2023-01-28T05:05:09.335Z,102059.59
2023-01-28T05:07:50.081Z,102055.31
2023-01-28T05:10:16.743Z,102066.72
2023-01-28T05:12:43.979Z,102062.44
2023-01-28T05:15:11.512Z,102059.06
2023-01-28T05:17:38.130Z,102061.75
2023-01-28T05:20:07.614Z,102064.41
2023-01-28T05:22:34.298Z,102074.00
2023-01-28T05:25:15.806Z,102077.50
2023-01-28T05:27:42.688Z,102069.78
2023-01-28T05:30:10.730Z,102065.47
2023-01-28T05:32:37.408Z,102044.88
2023-01-28T05:35:06.270Z,102076.72
2023-01-28T05:37:33.879Z,102073.31
2023-01-28T05:40:00.935Z,102053.69
2023-01-28T05:42:28.406Z,102077.78
2023-01-28T05:45:06.794Z,102080.28
2023-01-28T05:47:38.586Z,102088.09
2023-01-28T05:50:20.833Z,102050.41
2023-01-28T05:53:08.116Z,102076.91
2023-01-28T05:55:36.106Z,102082.06
2023-01-28T05:58:02.949Z,102088.06
2023-01-28T06:00:29.679Z,102098.41
2023-01-28T06:02:56.291Z,102096.63
2023-01-28T06:05:25.138Z,102094.00
2023-01-28T06:07:52.306Z,102100.81
2023-01-28T06:10:19.954Z,102101.56
2023-01-28T06:12:47.212Z,102096.38
2023-01-28T06:15:32.854Z,102104.16
2023-01-28T06:18:12.444Z,102102.41
2023-01-28T06:20:40.457Z,102117.03
2023-01-28T06:23:07.169Z,102105.72
2023-01-28T06:25:33.860Z,102105.63
2023-01-28T06:28:06.933Z,102105.59
2023-01-28T06:30:33.680Z,102056.06
2023-01-28T06:33:00.278Z,102060.28
2023-01-28T06:35:27.376Z,102120.19
2023-01-28T06:37:55.474Z,102122.75
2023-01-28T06:40:22.078Z,102121.81
2023-01-28T06:42:48.925Z,102084.97
2023-01-28T06:45:15.655Z,102120.84
2023-01-28T06:47:42.182Z,102128.59
2023-01-28T06:50:10.269Z,102132.81
2023-01-28T06:52:37.024Z,102128.44
2023-01-28T06:55:05.720Z,102131.81
2023-01-28T06:57:32.468Z,102126.59
2023-01-28T06:59:59.157Z,102127.44
2023-01-28T07:02:27.683Z,102115.53
2023-01-28T07:04:54.487Z,102107.75
2023-01-28T07:07:21.124Z,102136.78
2023-01-28T07:09:47.843Z,102139.31
2023-01-28T07:12:15.791Z,102134.94
2023-01-28T07:14:42.539Z,102136.66
2023-01-28T07:17:09.253Z,102140.97
2023-01-28T07:19:36.299Z,102082.72
2023-01-28T07:22:02.924Z,102134.81
2023-01-28T07:24:30.014Z,102079.25
2023-01-28T07:26:56.740Z,102135.56
2023-01-28T07:29:24.732Z,102120.84
2023-01-28T07:31:51.446Z,102131.97
2023-01-28T07:34:18.182Z,102116.63
2023-01-28T07:36:44.726Z,102129.38
2023-01-28T07:39:11.315Z,102132.72
2023-01-28T07:41:38.107Z,102133.50
2023-01-28T07:44:06.215Z,102133.44
2023-01-28T07:46:34.131Z,102144.69
2023-01-28T07:49:00.766Z,102146.34
2023-01-28T07:51:27.679Z,102145.50
2023-01-28T07:53:54.301Z,102152.31
2023-01-28T07:56:20.885Z,102157.47
2023-01-28T07:58:49.676Z,102158.28
2023-01-28T08:01:16.268Z,102161.69
2023-01-28T08:03:44.283Z,102170.31
2023-01-28T08:06:10.796Z,102166.78
2023-01-28T08:08:37.360Z,102160.69
2023-01-28T08:11:07.358Z,102065.66
2023-01-28T08:13:34.056Z,102159.69
2023-01-28T08:16:00.642Z,102151.81
2023-01-28T08:18:27.309Z,102092.81
2023-01-28T08:20:56.938Z,102131.16
2023-01-28T08:23:24.509Z,102154.25
2023-01-28T08:25:51.219Z,102156.00
2023-01-28T08:28:18.236Z,102131.22
2023-01-28T08:30:45.568Z,102154.13
2023-01-28T08:33:14.007Z,102148.84
2023-01-28T08:35:41.043Z,102152.19
2023-01-28T08:38:11.840Z,102161.66
2023-01-28T08:40:38.606Z,102103.31
2023-01-28T08:43:06.493Z,102151.91
2023-01-28T08:45:33.203Z,102168.25
2023-01-28T08:48:01.333Z,102171.66
2023-01-28T08:50:29.745Z,102141.53
2023-01-28T08:52:58.132Z,102173.88
2023-01-28T08:55:27.726Z,102176.28
2023-01-28T08:57:56.003Z,102178.03
2023-01-28T09:00:24.423Z,102184.97
2023-01-28T09:02:51.982Z,102181.41
2023-01-28T09:05:19.137Z,102186.63
2023-01-28T09:07:45.728Z,102190.91
2023-01-28T09:10:13.122Z,102140.38
2023-01-28T09:12:41.427Z,102180.41
2023-01-28T09:15:11.381Z,102182.84
2023-01-28T09:17:38.339Z,102189.63
2023-01-28T09:20:06.542Z,102182.66
2023-01-28T09:22:33.201Z,102172.41
2023-01-28T09:24:59.973Z,102159.56
2023-01-28T09:27:26.772Z,102174.09
2023-01-28T09:29:54.815Z,102203.97
2023-01-28T09:32:21.459Z,102133.91
2023-01-28T09:34:48.022Z,102208.28
2023-01-28T09:37:14.644Z,102218.53
2023-01-28T09:39:41.536Z,102121.88
2023-01-28T09:42:27.847Z,102221.84
2023-01-28T09:45:05.464Z,102237.34
2023-01-28T09:47:35.581Z,102234.81
2023-01-28T09:50:07.284Z,102233.97
2023-01-28T09:52:35.229Z,102231.47
2023-01-28T09:55:04.873Z,102243.47
2023-01-28T09:57:38.349Z,102239.03
2023-01-28T10:00:15.730Z,102248.31
2023-01-28T10:02:58.400Z,102243.03
2023-01-28T10:05:33.963Z,102244.88
2023-01-28T10:08:13.389Z,102244.53
2023-01-28T10:10:44.409Z,102221.44
2023-01-28T10:13:29.339Z,102254.94
2023-01-28T10:16:19.098Z,102239.25
2023-01-28T10:18:50.736Z,102265.16
2023-01-28T10:21:24.523Z,102260.75
2023-01-28T10:23:57.789Z,102256.38
2023-01-28T10:26:27.730Z,102257.97
2023-01-28T10:28:57.578Z,102250.94
2023-01-28T10:31:32.126Z,102240.72
2023-01-28T10:33:59.551Z,102249.75
2023-01-28T10:36:26.606Z,102246.19
2023-01-28T10:38:53.238Z,102245.50
2023-01-28T10:41:22.191Z,102249.19
2023-01-28T10:43:50.183Z,102246.34
2023-01-28T10:46:21.764Z,102255.66
2023-01-28T10:48:56.461Z,102264.28
2023-01-28T10:51:33.958Z,102243.75
2023-01-28T10:54:00.838Z,102253.09
2023-01-28T10:56:29.931Z,102262.44
2023-01-28T10:59:00.462Z,102249.41
2023-01-28T11:01:39.498Z,102247.59
2023-01-28T11:04:17.132Z,102253.31
2023-01-28T11:06:53.042Z,102238.00
2023-01-28T11:09:25.008Z,102228.03
2023-01-28T11:11:51.423Z,102244.06
2023-01-28T11:14:23.801Z,102246.56
2023-01-28T11:16:51.987Z,102255.59
2023-01-28T11:21:55.193Z,102257.16
2023-01-28T11:24:26.012Z,102254.19
2023-01-28T11:26:56.177Z,102238.34
2023-01-28T11:29:26.760Z,102243.38
2023-01-28T11:31:53.857Z,102237.16
2023-01-28T11:34:27.231Z,102223.22
2023-01-28T11:37:01.002Z,102228.03
2023-01-28T11:39:27.761Z,102226.16
2023-01-28T11:41:54.466Z,102233.16
2023-01-28T11:44:23.868Z,102232.28
2023-01-28T11:47:05.115Z,102232.34
2023-01-28T11:49:49.490Z,102239.41
2023-01-28T11:52:22.993Z,102240.97
2023-01-28T11:55:01.326Z,102223.72
2023-01-28T11:57:37.179Z,102237.47
2023-01-28T12:00:28.331Z,102237.78
2023-01-28T12:03:09.292Z,102238.59
2023-01-28T12:05:49.246Z,102236.84
2023-01-28T12:08:22.509Z,102236.97
2023-01-28T12:11:03.756Z,102230.53
2023-01-28T12:13:46.442Z,102238.03
2023-01-28T12:16:30.535Z,102220.69
2023-01-28T12:19:22.806Z,102226.84
2023-01-28T12:22:01.036Z,102228.69
2023-01-28T12:24:41.766Z,102216.28
2023-01-28T12:27:23.957Z,102222.16
2023-01-28T12:30:01.217Z,102218.97
2023-01-28T12:32:41.378Z,102148.72
2023-01-28T12:35:35.308Z,102238.19
2023-01-28T12:38:14.692Z,102232.25
2023-01-28T12:40:55.259Z,102224.31
2023-01-28T12:43:28.849Z,102225.53
2023-01-28T12:46:00.936Z,102217.69
2023-01-28T12:48:34.088Z,102216.63
2023-01-28T12:51:08.139Z,102225.19
2023-01-28T12:53:43.531Z,102210.53
2023-01-28T12:56:15.441Z,102207.44
2023-01-28T12:58:48.878Z,102210.31
2023-01-28T13:01:21.787Z,102211.78
2023-01-28T13:03:54.881Z,102213.09
2023-01-28T13:06:27.807Z,102217.53
2023-01-28T13:09:01.011Z,102218.22
2023-01-28T13:11:34.161Z,102218.47
2023-01-28T13:14:02.012Z,102215.00
2023-01-28T13:16:37.294Z,102222.66
2023-01-28T13:19:07.922Z,102214.91
2023-01-28T13:21:47.657Z,102191.59
2023-01-28T13:24:32.340Z,102211.34
2023-01-28T13:27:09.811Z,102198.50
2023-01-28T13:29:36.505Z,102081.59
2023-01-28T13:32:24.294Z,102187.06
2023-01-28T13:34:58.331Z,102187.97
2023-01-28T13:37:30.660Z,102179.97
2023-01-28T13:40:06.077Z,102177.97
2023-01-28T13:42:33.097Z,102188.38
2023-01-28T13:45:20.836Z,102190.16
2023-01-28T13:47:51.302Z,102179.63
2023-01-28T13:50:21.528Z,102148.19
2023-01-28T13:52:55.039Z,102179.00
2023-01-28T13:55:42.656Z,102159.91
2023-01-28T13:58:31.022Z,102142.50
2023-01-28T14:01:24.208Z,102146.56
2023-01-28T14:04:26.751Z,102125.50
2023-01-28T14:07:08.465Z,102113.91
2023-01-28T14:09:53.965Z,102123.94
2023-01-28T14:12:58.037Z,102130.59
2023-01-28T14:15:56.130Z,102127.44
2023-01-28T14:18:27.721Z,102129.69
2023-01-28T14:20:56.374Z,102154.84
2023-01-28T14:23:24.249Z,102169.41
2023-01-28T14:26:04.971Z,102175.50
2023-01-28T14:28:43.499Z,102169.50
2023-01-28T14:31:15.644Z,102169.09
2023-01-28T14:33:43.484Z,102173.50
2023-01-28T14:36:11.650Z,102190.09
2023-01-28T14:38:41.167Z,102196.22
2023-01-28T14:41:09.414Z,102189.22
2023-01-28T14:43:38.681Z,102172.16
2023-01-28T14:46:16.646Z,102171.28
2023-01-28T14:48:51.638Z,102205.03
2023-01-28T14:51:37.550Z,102208.78
2023-01-28T14:54:37.391Z,102211.13
2023-01-28T14:57:18.228Z,102203.31
2023-01-28T14:59:49.390Z,102195.47
2023-01-28T15:02:20.037Z,102206.00
2023-01-28T15:04:46.907Z,102204.53
2023-01-28T15:07:18.889Z,102197.88
2023-01-28T15:09:45.376Z,102188.97
2023-01-28T15:12:14.293Z,102201.22
2023-01-28T15:14:41.739Z,102207.56
2023-01-28T15:17:23.186Z,102194.66
2023-01-28T15:19:50.193Z,102198.91
2023-01-28T15:22:17.116Z,102173.81
2023-01-28T15:24:43.824Z,102192.44
2023-01-28T15:27:17.336Z,102187.53
2023-01-28T15:29:51.783Z,102183.41
2023-01-28T15:32:23.994Z,102156.28
2023-01-28T15:34:50.614Z,102179.44
2023-01-28T15:37:19.140Z,102143.84
2023-01-28T15:39:48.632Z,102178.19
2023-01-28T15:42:20.614Z,102143.56
2023-01-28T15:44:48.004Z,102179.75
2023-01-28T15:47:17.731Z,102151.06
2023-01-28T15:49:48.997Z,102182.88
2023-01-28T15:52:16.055Z,102164.06
2023-01-28T15:54:45.705Z,102160.75
2023-01-28T15:57:19.430Z,102161.81
2023-01-28T15:59:46.377Z,102168.09
2023-01-28T16:02:18.566Z,102160.75
2023-01-28T16:04:57.503Z,102171.31
2023-01-28T16:07:24.774Z,102122.00
2023-01-28T16:09:52.587Z,102177.88
2023-01-28T16:12:19.858Z,102191.91
2023-01-28T16:14:51.189Z,102199.03
2023-01-28T16:17:21.222Z,102153.09
2023-01-28T16:19:50.188Z,102154.91
2023-01-28T16:22:27.082Z,102205.56
2023-01-28T16:24:54.485Z,102178.28
2023-01-28T16:27:22.637Z,102201.59
2023-01-28T16:29:49.362Z,102196.66
2023-01-28T16:32:28.674Z,102179.59
2023-01-28T16:34:55.604Z,102150.69
2023-01-28T16:37:23.490Z,102202.31
2023-01-28T16:39:50.124Z,102201.47
2023-01-28T16:42:16.986Z,102204.19
2023-01-28T16:44:43.619Z,102207.00
2023-01-28T16:47:10.348Z,102214.06
2023-01-28T16:49:37.082Z,102225.47
2023-01-28T16:52:04.876Z,102234.16
2023-01-28T16:54:33.952Z,102247.25
2023-01-28T16:57:00.794Z,102259.44
2023-01-28T16:59:27.468Z,102258.75
2023-01-28T17:01:54.022Z,102270.06
2023-01-28T17:04:20.672Z,102290.13
2023-01-28T17:06:47.408Z,102293.72
2023-01-28T17:09:15.073Z,102300.69
2023-01-28T17:11:43.214Z,102310.19
2023-01-28T17:14:10.348Z,102302.47
2023-01-28T17:16:37.158Z,102320.56
2023-01-28T17:19:04.072Z,102325.75
2023-01-28T17:21:30.616Z,102320.56
2023-01-28T17:23:59.047Z,102329.13
2023-01-28T17:26:26.301Z,102326.47
2023-01-28T17:28:54.384Z,102325.66
2023-01-28T17:31:21.944Z,102329.03
2023-01-28T17:33:53.692Z,102345.38
2023-01-28T17:36:20.560Z,102275.00
2023-01-28T17:38:47.137Z,102304.16
2023-01-28T17:41:14.615Z,102313.56
2023-01-28T17:43:41.201Z,102309.94
2023-01-28T17:46:13.756Z,102252.53
2023-01-28T17:48:40.752Z,102293.63
2023-01-28T17:51:07.373Z,102289.34
2023-01-28T17:53:34.130Z,102280.78
2023-01-28T17:56:00.837Z,102256.88
2023-01-28T17:58:27.500Z,102281.78
2023-01-28T18:00:54.143Z,102248.47
2023-01-28T18:03:22.098Z,102280.19
2023-01-28T18:05:57.336Z,102275.06
2023-01-28T18:08:24.212Z,102278.53
2023-01-28T18:10:50.857Z,102284.56
2023-01-28T18:13:17.496Z,102283.81
2023-01-28T18:15:44.109Z,102277.97
2023-01-28T18:18:10.957Z,102291.66
2023-01-28T18:20:38.850Z,102290.88
2023-01-28T18:23:05.462Z,102321.09
2023-01-28T18:25:32.016Z,102335.00
2023-01-28T18:27:58.631Z,102340.25
2023-01-28T18:30:25.222Z,102334.28
2023-01-28T18:32:52.128Z,102337.75
2023-01-28T18:35:19.070Z,102346.31
2023-01-28T18:37:47.257Z,102355.88
2023-01-28T18:40:13.944Z,102328.47
2023-01-28T18:42:40.547Z,102324.22
2023-01-28T18:45:07.968Z,102341.38
2023-01-28T18:47:34.813Z,102336.22
2023-01-28T18:50:01.332Z,102334.53
2023-01-28T18:52:27.924Z,102346.59
2023-01-28T18:54:56.020Z,102338.03
2023-01-28T18:57:22.655Z,102343.22
2023-01-28T18:59:49.186Z,102346.72
2023-01-28T19:02:15.823Z,102359.69
2023-01-28T19:04:42.331Z,102359.69
2023-01-28T19:07:11.403Z,102365.78
2023-01-28T19:09:38.233Z,102368.38
2023-01-28T19:12:06.351Z,102373.59
2023-01-28T19:14:32.933Z,102372.78
2023-01-28T19:16:59.551Z,102366.78
2023-01-28T19:19:26.149Z,102314.38
2023-01-28T19:21:52.908Z,102359.00
2023-01-28T19:24:19.563Z,102361.59
2023-01-28T19:26:46.207Z,102367.63
2023-01-28T19:29:15.886Z,102357.34
2023-01-28T19:31:45.680Z,102353.94
2023-01-28T19:34:12.469Z,102351.38
2023-01-28T19:36:38.999Z,102354.81
2023-01-28T19:39:07.340Z,102342.78
2023-01-28T19:41:34.343Z,102325.63
2023-01-28T19:44:00.972Z,102354.03
2023-01-28T19:46:29.076Z,102354.94
2023-01-28T19:48:55.858Z,102370.44
2023-01-28T19:51:23.286Z,102362.72
2023-01-28T19:53:51.336Z,102359.28
2023-01-28T19:56:18.962Z,102366.16
2023-01-28T19:58:46.446Z,102365.31
2023-01-28T20:01:14.833Z,102335.25
2023-01-28T20:03:43.169Z,102364.47
2023-01-28T20:06:13.119Z,102324.97
2023-01-28T20:08:39.709Z,102372.22
2023-01-28T20:11:10.284Z,102333.56
2023-01-28T20:13:38.689Z,102272.59
2023-01-28T20:16:08.108Z,102379.13
2023-01-28T20:18:35.449Z,102375.72
2023-01-28T20:21:03.516Z,102377.44
2023-01-28T20:23:30.135Z,102381.78
2023-01-28T20:25:57.346Z,102352.56
2023-01-28T20:28:25.244Z,102383.53
2023-01-28T20:30:52.998Z,102375.78
2023-01-28T20:33:20.204Z,102384.38
2023-01-28T20:35:48.999Z,102383.53
2023-01-28T20:38:25.303Z,102381.78
2023-01-28T20:41:00.185Z,102381.81
2023-01-28T20:43:28.866Z,102376.66
2023-01-28T20:46:06.603Z,102353.47
2023-01-28T20:48:41.590Z,102370.69
2023-01-28T20:54:23.978Z,102358.63
2023-01-28T20:56:55.717Z,102354.34
2023-01-28T20:59:24.867Z,102294.19
2023-01-28T21:02:09.073Z,102374.13
2023-01-28T21:04:45.943Z,102354.34
2023-01-28T21:07:16.057Z,102373.28
2023-01-28T21:09:44.254Z,102318.28
2023-01-28T21:12:11.262Z,102366.41
2023-01-28T21:14:44.714Z,102365.53
2023-01-28T21:17:18.105Z,102369.84
2023-01-28T21:20:32.892Z,102369.00
2023-01-28T21:23:28.992Z,102369.88
2023-01-28T21:31:57.974Z,102354.38
2023-01-28T21:34:31.626Z,102310.56
2023-01-28T21:40:06.534Z,102344.06
2023-01-28T21:43:01.715Z,102338.94
